WAT4046 EGPC-EHGG
Flight info
| Callsign | WAT4046 |
|---|---|
| Flight time | N/A |
| Altitude | 7000 |
| Route | WIK DCT LESNI DCT NOBDO DCT PELET DCT TEVKA DCT IPCOL DCT XEBOT |
| Aircraft | C208/L-SDFGR/C |
Departure
| Time | 2026-04-12 04:26 |
|---|---|
| Airport | Wick John O'Groats Airport (EGPC) |
Arrival
| Time | N/A |
|---|---|
| Airport | Groningen Airport Eelde (EHGG) |
| Time | Latitude | Longitude | Altitude | Speed | Heading |
|---|---|---|---|---|---|
| 2026-04-12 04:03 | 58.45411 | -3.08803 | 136 ft | 0 kts | 294° |
| 2026-04-12 04:24 | 58.45455 | -3.08787 | 136 ft | 12 kts | 23° |
| 2026-04-12 04:24 | 58.45538 | -3.08684 | 136 ft | 13 kts | 49° |
| 2026-04-12 04:24 | 58.45599 | -3.08612 | 137 ft | 16 kts | 324° |
| 2026-04-12 04:25 | 58.45758 | -3.09015 | 137 ft | 73 kts | 305° |
| 2026-04-12 04:25 | 58.46123 | -3.09973 | 181 ft | 83 kts | 304° |
| 2026-04-12 04:25 | 58.46478 | -3.10687 | 473 ft | 68 kts | 322° |
| 2026-04-12 04:25 | 58.47085 | -3.11192 | 569 ft | 121 kts | 350° |
| 2026-04-12 04:26 | 58.47971 | -3.10738 | 804 ft | 147 kts | 28° |
| 2026-04-12 04:26 | 58.48554 | -3.08999 | 1054 ft | 171 kts | 71° |
| 2026-04-12 04:26 | 58.48337 | -3.06691 | 1299 ft | 188 kts | 117° |
| 2026-04-12 04:26 | 58.47317 | -3.05135 | 1549 ft | 193 kts | 162° |
| 2026-04-12 04:27 | 58.46448 | -3.04810 | 1714 ft | 192 kts | 177° |
| 2026-04-12 04:27 | 58.45148 | -3.04565 | 1972 ft | 185 kts | 174° |
| 2026-04-12 04:27 | 58.43947 | -3.03901 | 2213 ft | 174 kts | 158° |
| 2026-04-12 04:27 | 58.42891 | -3.02799 | 2462 ft | 174 kts | 146° |
| 2026-04-12 04:28 | 58.41923 | -3.01385 | 2713 ft | 175 kts | 137° |
| 2026-04-12 04:28 | 58.41031 | -2.99804 | 2966 ft | 175 kts | 133° |
| 2026-04-12 04:28 | 58.40172 | -2.98144 | 3214 ft | 176 kts | 130° |
| 2026-04-12 04:28 | 58.39330 | -2.96452 | 3471 ft | 176 kts | 130° |
| 2026-04-12 04:29 | 58.38495 | -2.94746 | 3722 ft | 176 kts | 129° |
| 2026-04-12 04:29 | 58.37662 | -2.93032 | 3973 ft | 176 kts | 129° |
| 2026-04-12 04:29 | 58.36827 | -2.91316 | 4220 ft | 177 kts | 129° |
| 2026-04-12 04:29 | 58.35990 | -2.89598 | 4469 ft | 177 kts | 129° |
| 2026-04-12 04:30 | 58.35153 | -2.87879 | 4718 ft | 177 kts | 129° |
| 2026-04-12 04:30 | 58.34318 | -2.86162 | 4967 ft | 177 kts | 129° |
| 2026-04-12 04:30 | 58.33485 | -2.84446 | 5218 ft | 177 kts | 129° |
| 2026-04-12 04:30 | 58.32650 | -2.82733 | 5468 ft | 176 kts | 129° |
| 2026-04-12 04:31 | 58.31819 | -2.81030 | 5718 ft | 176 kts | 129° |
| 2026-04-12 04:31 | 58.30989 | -2.79333 | 5968 ft | 175 kts | 129° |
| 2026-04-12 04:31 | 58.30161 | -2.77638 | 6219 ft | 175 kts | 129° |
| 2026-04-12 04:31 | 58.29337 | -2.75949 | 6463 ft | 174 kts | 129° |
| 2026-04-12 04:32 | 58.28526 | -2.74289 | 6717 ft | 173 kts | 129° |
| 2026-04-12 04:32 | 58.27710 | -2.72616 | 6953 ft | 174 kts | 129° |
| 2026-04-12 04:32 | 58.26853 | -2.70848 | 6934 ft | 188 kts | 129° |
| 2026-04-12 04:32 | 58.25949 | -2.68994 | 6924 ft | 194 kts | 130° |
| 2026-04-12 04:33 | 58.25025 | -2.67108 | 6924 ft | 196 kts | 130° |
| 2026-04-12 04:33 | 58.24094 | -2.65217 | 6916 ft | 196 kts | 130° |
| 2026-04-12 04:33 | 58.23159 | -2.63325 | 6906 ft | 196 kts | 130° |
| 2026-04-12 04:33 | 58.22228 | -2.61437 | 6906 ft | 196 kts | 130° |
| 2026-04-12 04:34 | 58.21299 | -2.59553 | 6905 ft | 195 kts | 130° |
| 2026-04-12 04:34 | 58.20370 | -2.57671 | 6910 ft | 195 kts | 130° |
| 2026-04-12 04:34 | 58.19444 | -2.55795 | 6906 ft | 195 kts | 130° |
| 2026-04-12 04:34 | 58.18521 | -2.53920 | 6913 ft | 194 kts | 130° |
| 2026-04-12 04:35 | 58.17596 | -2.52049 | 6917 ft | 194 kts | 130° |
| 2026-04-12 04:35 | 58.16674 | -2.50184 | 6905 ft | 193 kts | 130° |
| 2026-04-12 04:35 | 58.15757 | -2.48331 | 6913 ft | 193 kts | 130° |
| 2026-04-12 04:35 | 58.14839 | -2.46478 | 6906 ft | 193 kts | 130° |
| 2026-04-12 04:36 | 58.13923 | -2.44631 | 6906 ft | 192 kts | 130° |
| 2026-04-12 04:36 | 58.13009 | -2.42787 | 6909 ft | 192 kts | 130° |
| 2026-04-12 04:36 | 58.12097 | -2.40951 | 6906 ft | 192 kts | 130° |
| 2026-04-12 04:36 | 58.11186 | -2.39114 | 6913 ft | 191 kts | 131° |
| 2026-04-12 04:37 | 58.10276 | -2.37285 | 6906 ft | 191 kts | 131° |
| 2026-04-12 04:37 | 58.09366 | -2.35459 | 6906 ft | 190 kts | 131° |
| 2026-04-12 04:37 | 58.08458 | -2.33636 | 6910 ft | 190 kts | 131° |
| 2026-04-12 04:37 | 58.07553 | -2.31818 | 6906 ft | 190 kts | 131° |
| 2026-04-12 04:38 | 58.06649 | -2.30006 | 6910 ft | 190 kts | 131° |
| 2026-04-12 04:38 | 58.05745 | -2.28196 | 6901 ft | 189 kts | 131° |
| 2026-04-12 04:38 | 58.04850 | -2.26409 | 6964 ft | 186 kts | 131° |
| 2026-04-12 04:38 | 58.03961 | -2.24631 | 6982 ft | 186 kts | 131° |
| 2026-04-12 04:39 | 58.03073 | -2.22854 | 6992 ft | 186 kts | 131° |
| 2026-04-12 04:39 | 58.02184 | -2.21073 | 6996 ft | 187 kts | 131° |
| 2026-04-12 04:39 | 58.01290 | -2.19289 | 6991 ft | 187 kts | 131° |
| 2026-04-12 04:39 | 58.00399 | -2.17508 | 6984 ft | 187 kts | 131° |
| 2026-04-12 04:40 | 57.99507 | -2.15726 | 6984 ft | 186 kts | 131° |
| 2026-04-12 04:40 | 57.98618 | -2.13958 | 6982 ft | 186 kts | 131° |
| 2026-04-12 04:40 | 57.97727 | -2.12190 | 6976 ft | 186 kts | 131° |
| 2026-04-12 04:40 | 57.96838 | -2.10430 | 6974 ft | 185 kts | 131° |
| 2026-04-12 04:41 | 57.95950 | -2.08670 | 6973 ft | 185 kts | 131° |
| 2026-04-12 04:41 | 57.95062 | -2.06908 | 6972 ft | 185 kts | 131° |
| 2026-04-12 04:41 | 57.94175 | -2.05152 | 6972 ft | 185 kts | 131° |
| 2026-04-12 04:41 | 57.93287 | -2.03395 | 6972 ft | 185 kts | 131° |
| 2026-04-12 04:42 | 57.92399 | -2.01643 | 6972 ft | 185 kts | 131° |
| 2026-04-12 04:42 | 57.91513 | -1.99888 | 6972 ft | 185 kts | 131° |
| 2026-04-12 04:42 | 57.90629 | -1.98136 | 6972 ft | 185 kts | 131° |
| 2026-04-12 04:43 | 57.88858 | -1.94636 | 6972 ft | 185 kts | 131° |
| 2026-04-12 04:43 | 57.87972 | -1.92884 | 6972 ft | 185 kts | 131° |
| 2026-04-12 04:43 | 57.87087 | -1.91135 | 6972 ft | 185 kts | 131° |
| 2026-04-12 04:43 | 57.86201 | -1.89385 | 6972 ft | 185 kts | 131° |
| 2026-04-12 04:44 | 57.85315 | -1.87637 | 6972 ft | 185 kts | 131° |
| 2026-04-12 04:44 | 57.84428 | -1.85892 | 6972 ft | 184 kts | 131° |
| 2026-04-12 04:44 | 57.83541 | -1.84146 | 6972 ft | 185 kts | 131° |
| 2026-04-12 04:44 | 57.82667 | -1.82422 | 6972 ft | 185 kts | 131° |
| 2026-04-12 04:45 | 57.81777 | -1.80672 | 6972 ft | 185 kts | 131° |
| 2026-04-12 04:45 | 57.80887 | -1.78925 | 6972 ft | 185 kts | 131° |
| 2026-04-12 04:45 | 57.79995 | -1.77178 | 6972 ft | 185 kts | 132° |
| 2026-04-12 04:45 | 57.79101 | -1.75431 | 6973 ft | 186 kts | 132° |
| 2026-04-12 04:46 | 57.78203 | -1.73676 | 6973 ft | 187 kts | 131° |
| 2026-04-12 04:46 | 57.77307 | -1.71924 | 6972 ft | 186 kts | 131° |
| 2026-04-12 04:46 | 57.76406 | -1.70165 | 6972 ft | 187 kts | 131° |
| 2026-04-12 04:46 | 57.75505 | -1.68405 | 6972 ft | 187 kts | 131° |
| 2026-04-12 04:47 | 57.74599 | -1.66643 | 6972 ft | 188 kts | 132° |
| 2026-04-12 04:47 | 57.73692 | -1.64876 | 6972 ft | 188 kts | 131° |
| 2026-04-12 04:47 | 57.72785 | -1.63109 | 6972 ft | 189 kts | 131° |
| 2026-04-12 04:47 | 57.71873 | -1.61335 | 6972 ft | 189 kts | 132° |
| 2026-04-12 04:48 | 57.70960 | -1.59562 | 6972 ft | 190 kts | 132° |
| 2026-04-12 04:48 | 57.70044 | -1.57783 | 6972 ft | 191 kts | 132° |
| 2026-04-12 04:48 | 57.69109 | -1.55969 | 6979 ft | 196 kts | 132° |
| 2026-04-12 04:48 | 57.68160 | -1.54120 | 6975 ft | 198 kts | 131° |
| 2026-04-12 04:49 | 57.67205 | -1.52257 | 6971 ft | 199 kts | 132° |
| 2026-04-12 04:49 | 57.66244 | -1.50389 | 6968 ft | 200 kts | 132° |
| 2026-04-12 04:49 | 57.65279 | -1.48516 | 6963 ft | 200 kts | 132° |
| 2026-04-12 04:49 | 57.64312 | -1.46646 | 6962 ft | 200 kts | 132° |
| 2026-04-12 04:50 | 57.63347 | -1.44782 | 6962 ft | 200 kts | 132° |
| 2026-04-12 04:50 | 57.62380 | -1.42915 | 6961 ft | 200 kts | 132° |
| 2026-04-12 04:50 | 57.61415 | -1.41054 | 6962 ft | 199 kts | 132° |
| 2026-04-12 04:50 | 57.60448 | -1.39192 | 6962 ft | 200 kts | 132° |
| 2026-04-12 04:51 | 57.59482 | -1.37333 | 6962 ft | 199 kts | 132° |
| 2026-04-12 04:51 | 57.58519 | -1.35477 | 6962 ft | 199 kts | 132° |
| 2026-04-12 04:51 | 57.57554 | -1.33620 | 6962 ft | 199 kts | 132° |
| 2026-04-12 04:51 | 57.56601 | -1.31792 | 6962 ft | 199 kts | 132° |
| 2026-04-12 04:52 | 57.55621 | -1.29914 | 6962 ft | 200 kts | 132° |
| 2026-04-12 04:52 | 57.54654 | -1.28062 | 6960 ft | 199 kts | 132° |
| 2026-04-12 04:52 | 57.53699 | -1.26236 | 6956 ft | 199 kts | 133° |
| 2026-04-12 04:52 | 57.52711 | -1.24422 | 6954 ft | 200 kts | 134° |
| 2026-04-12 04:53 | 57.51710 | -1.22625 | 6953 ft | 200 kts | 134° |
| 2026-04-12 04:53 | 57.50710 | -1.20838 | 6953 ft | 199 kts | 134° |
| 2026-04-12 04:53 | 57.48720 | -1.17270 | 6957 ft | 198 kts | 134° |
| 2026-04-12 04:54 | 57.47730 | -1.15486 | 6953 ft | 198 kts | 134° |
| 2026-04-12 04:54 | 57.46744 | -1.13706 | 6953 ft | 197 kts | 134° |
| 2026-04-12 04:54 | 57.45758 | -1.11929 | 6953 ft | 198 kts | 134° |
| 2026-04-12 04:54 | 57.44767 | -1.10144 | 6953 ft | 199 kts | 134° |
| 2026-04-12 04:55 | 57.43772 | -1.08357 | 6953 ft | 199 kts | 134° |
| 2026-04-12 04:55 | 57.42778 | -1.06573 | 6953 ft | 199 kts | 134° |
| 2026-04-12 04:55 | 57.41783 | -1.04788 | 6953 ft | 198 kts | 134° |
| 2026-04-12 04:55 | 57.40793 | -1.03014 | 6953 ft | 199 kts | 134° |
| 2026-04-12 04:56 | 57.39803 | -1.01232 | 6955 ft | 198 kts | 134° |
| 2026-04-12 04:56 | 57.38811 | -0.99450 | 6953 ft | 198 kts | 134° |
| 2026-04-12 04:56 | 57.37820 | -0.97673 | 6953 ft | 198 kts | 134° |
| 2026-04-12 04:56 | 57.36832 | -0.95905 | 6953 ft | 197 kts | 134° |
| 2026-04-12 04:57 | 57.35848 | -0.94141 | 6955 ft | 197 kts | 134° |
| 2026-04-12 04:57 | 57.34864 | -0.92379 | 6954 ft | 197 kts | 134° |
| 2026-04-12 04:57 | 57.33876 | -0.90615 | 6953 ft | 198 kts | 134° |
| 2026-04-12 04:57 | 57.32884 | -0.88844 | 6953 ft | 198 kts | 134° |
| 2026-04-12 04:58 | 57.31891 | -0.87076 | 6952 ft | 198 kts | 134° |
| 2026-04-12 04:58 | 57.30896 | -0.85304 | 6952 ft | 198 kts | 134° |
| 2026-04-12 04:58 | 57.29902 | -0.83534 | 6952 ft | 198 kts | 134° |